createdAt,value
2023-03-24T00:00:41.481Z,5.2
2023-03-24T00:01:50.045Z,4.9
2023-03-24T00:02:58.400Z,4.9
2023-03-24T00:04:06.703Z,4.9
2023-03-24T00:05:15.212Z,6
2023-03-24T00:06:23.605Z,6
2023-03-24T00:07:31.894Z,6
2023-03-24T00:08:40.464Z,7.3
2023-03-24T00:09:48.796Z,7.3
2023-03-24T00:10:57.087Z,7.3
2023-03-24T00:12:05.633Z,4.2
2023-03-24T00:13:13.966Z,4.2
2023-03-24T00:14:22.298Z,4.2
2023-03-24T00:15:30.825Z,5.4
2023-03-24T00:16:39.155Z,5.4
2023-03-24T00:17:47.494Z,5.4
2023-03-24T00:18:56.041Z,4.6
2023-03-24T00:20:04.349Z,4.6
2023-03-24T00:21:12.704Z,4.6
2023-03-24T00:22:21.233Z,4.8
2023-03-24T00:23:29.556Z,4.8
2023-03-24T00:24:37.900Z,4.8
2023-03-24T00:25:46.465Z,4.8
2023-03-24T00:26:54.775Z,4.8
2023-03-24T00:28:03.117Z,4.8
2023-03-24T00:29:11.689Z,4.4
2023-03-24T00:30:20.013Z,4.4
2023-03-24T00:31:28.367Z,4.4
2023-03-24T00:32:36.897Z,4.5
2023-03-24T00:33:45.198Z,4.5
2023-03-24T00:34:53.541Z,4.5
2023-03-24T00:36:02.866Z,3.5
2023-03-24T00:37:11.114Z,3.5
2023-03-24T00:38:19.438Z,3.5
2023-03-24T00:39:27.966Z,3.9
2023-03-24T00:40:36.295Z,3.9
2023-03-24T00:41:44.648Z,3.9
2023-03-24T00:42:53.154Z,4.1
2023-03-24T00:44:01.487Z,4.1
2023-03-24T00:45:09.820Z,4.1
2023-03-24T00:46:18.375Z,3.9
2023-03-24T00:47:26.757Z,3.9
2023-03-24T00:48:35.029Z,3.9
2023-03-24T00:49:43.580Z,4.2
2023-03-24T00:50:51.885Z,4.2
2023-03-24T00:52:00.209Z,4.2
2023-03-24T00:53:08.738Z,4.1
2023-03-24T00:54:17.086Z,4.1
2023-03-24T00:55:25.415Z,4.1
2023-03-24T00:56:33.992Z,4.2
2023-03-24T00:57:42.294Z,4.2
2023-03-24T00:58:50.600Z,4.2
2023-03-24T00:59:59.139Z,4.5
2023-03-24T01:01:07.477Z,4.5
2023-03-24T01:02:15.879Z,4.5
2023-03-24T01:03:24.324Z,4.6
2023-03-24T01:04:32.663Z,4.6
2023-03-24T01:05:40.996Z,4.6
2023-03-24T01:06:49.519Z,4.5
2023-03-24T01:07:57.869Z,4.5
2023-03-24T01:09:06.206Z,4.5
2023-03-24T01:10:14.733Z,5.5
2023-03-24T01:11:23.069Z,5.5
2023-03-24T01:12:31.425Z,5.5
2023-03-24T01:13:39.954Z,4.2
2023-03-24T01:14:48.258Z,4.2
2023-03-24T01:15:56.609Z,4.2
2023-03-24T01:17:05.103Z,3.7
2023-03-24T01:18:13.447Z,3.7
2023-03-24T01:19:21.783Z,3.7
2023-03-24T01:20:30.314Z,3.7
2023-03-24T01:21:38.620Z,3.7
2023-03-24T01:22:46.952Z,3.7
2023-03-24T01:23:55.503Z,3.6
2023-03-24T01:25:03.839Z,3.6
2023-03-24T01:26:12.165Z,3.6
2023-03-24T01:27:20.712Z,4.6
2023-03-24T01:28:29.029Z,4.6
2023-03-24T01:29:37.401Z,4.6
2023-03-24T01:30:46.125Z,5.1
2023-03-24T01:31:54.313Z,5.1
2023-03-24T01:33:02.590Z,5.1
2023-03-24T01:34:11.124Z,4.3
2023-03-24T01:35:19.452Z,4.3
2023-03-24T01:36:27.791Z,4.3
2023-03-24T01:37:36.322Z,4.3
2023-03-24T01:38:44.669Z,4.3
2023-03-24T01:39:53.011Z,4.3
2023-03-24T01:41:01.546Z,4.5
2023-03-24T01:42:09.866Z,4.5
2023-03-24T01:43:18.192Z,4.5
2023-03-24T01:44:26.776Z,4.6
2023-03-24T01:45:35.138Z,4.6
2023-03-24T01:46:43.416Z,4.6
2023-03-24T01:47:51.960Z,6.4
2023-03-24T01:49:00.311Z,6.4
2023-03-24T01:50:08.666Z,6.4
2023-03-24T01:51:17.227Z,3.3
2023-03-24T01:52:25.568Z,3.3
2023-03-24T01:53:33.904Z,3.3
2023-03-24T01:54:42.448Z,4.2
2023-03-24T01:55:50.773Z,4.2
2023-03-24T01:56:59.145Z,4.2
2023-03-24T01:58:07.642Z,3.8
2023-03-24T01:59:15.983Z,3.8
2023-03-24T02:00:24.296Z,3.8
2023-03-24T02:01:32.879Z,4.4
2023-03-24T02:02:41.162Z,4.4
2023-03-24T02:03:49.517Z,4.4
2023-03-24T02:04:58.036Z,4.2
2023-03-24T02:06:06.371Z,4.2
2023-03-24T02:07:14.690Z,4.2
2023-03-24T02:08:23.249Z,4.3
2023-03-24T02:09:31.564Z,4.3
2023-03-24T02:10:39.897Z,4.3
2023-03-24T02:11:48.446Z,5.9
2023-03-24T02:12:56.781Z,5.9
2023-03-24T02:14:05.094Z,5.9
2023-03-24T02:15:13.650Z,4.6
2023-03-24T02:16:22.052Z,4.6
2023-03-24T02:17:30.402Z,4.6
2023-03-24T02:18:38.846Z,4.5
2023-03-24T02:19:47.197Z,4.5
2023-03-24T02:20:55.493Z,4.5
2023-03-24T02:22:04.051Z,5.3
2023-03-24T02:23:12.395Z,5.3
2023-03-24T02:24:20.723Z,5.3
2023-03-24T02:25:29.260Z,4.3
2023-03-24T02:26:37.600Z,4.3
2023-03-24T02:27:45.933Z,4.3
2023-03-24T02:28:54.504Z,4.1
2023-03-24T02:30:02.838Z,4.1
2023-03-24T02:31:11.158Z,4.1
2023-03-24T02:32:19.703Z,4.5
2023-03-24T02:33:28.092Z,4.5
2023-03-24T02:34:36.394Z,4.5
2023-03-24T02:35:44.932Z,5.6
2023-03-24T02:36:53.244Z,5.6
2023-03-24T02:38:01.568Z,5.6
2023-03-24T02:39:10.121Z,4.7
2023-03-24T02:40:18.448Z,4.7
2023-03-24T02:41:26.788Z,4.7
2023-03-24T02:42:35.324Z,5.2
2023-03-24T02:43:43.676Z,5.2
2023-03-24T02:44:52.006Z,5.2
2023-03-24T02:46:00.549Z,5.2
2023-03-24T02:47:08.857Z,5.2
2023-03-24T02:48:17.173Z,5.2
2023-03-24T02:49:25.763Z,4.6
2023-03-24T02:50:34.078Z,4.6
2023-03-24T02:51:42.395Z,4.6
2023-03-24T02:52:50.935Z,5.4
2023-03-24T02:53:59.275Z,5.4
2023-03-24T02:55:07.654Z,5.4
2023-03-24T02:56:16.190Z,5
2023-03-24T02:57:24.526Z,5
2023-03-24T02:58:32.845Z,5
2023-03-24T02:59:41.396Z,5.1
2023-03-24T03:00:49.729Z,5.1
2023-03-24T03:01:58.074Z,5.1
2023-03-24T03:03:06.606Z,4.6
2023-03-24T03:04:14.962Z,4.6
2023-03-24T03:05:23.293Z,4.6
2023-03-24T03:06:31.817Z,4.1
2023-03-24T03:07:40.138Z,4.1
2023-03-24T03:08:48.492Z,4.1
2023-03-24T03:09:57.008Z,5.4
2023-03-24T03:11:05.348Z,5.4
2023-03-24T03:12:13.689Z,5.4
2023-03-24T03:13:22.242Z,5.1
2023-03-24T03:14:30.588Z,5.1
2023-03-24T03:15:38.942Z,5.1
2023-03-24T03:16:47.464Z,4.7
2023-03-24T03:17:55.837Z,4.7
2023-03-24T03:19:04.159Z,4.7
2023-03-24T03:20:12.672Z,5.6
2023-03-24T03:21:21.063Z,5.6
2023-03-24T03:22:29.330Z,5.6
2023-03-24T03:23:37.877Z,5.2
2023-03-24T03:24:46.205Z,5.2
2023-03-24T03:25:54.538Z,5.2
2023-03-24T03:27:03.082Z,5.2
2023-03-24T03:28:11.412Z,5.2
2023-03-24T03:29:19.779Z,5.2
2023-03-24T03:30:28.293Z,4.6
2023-03-24T03:31:36.648Z,4.6
2023-03-24T03:32:44.977Z,4.6
2023-03-24T03:33:53.498Z,4.9
2023-03-24T03:35:01.826Z,4.9
2023-03-24T03:36:10.179Z,4.9
2023-03-24T03:37:18.722Z,5.2
2023-03-24T03:38:27.024Z,5.2
2023-03-24T03:39:35.366Z,5.2
2023-03-24T03:40:43.891Z,5.1
2023-03-24T03:41:52.242Z,5.1
2023-03-24T03:43:00.573Z,5.1
2023-03-24T03:44:09.129Z,5.5
2023-03-24T03:45:17.447Z,5.5
2023-03-24T03:46:25.897Z,5.5
2023-03-24T03:47:34.627Z,4.8
2023-03-24T03:48:42.698Z,4.8
2023-03-24T03:49:51.042Z,4.8
2023-03-24T03:51:10.706Z,5.5
2023-03-24T03:52:07.910Z,5.5
2023-03-24T03:53:16.265Z,5.5
2023-03-24T03:54:24.803Z,5
2023-03-24T03:55:33.143Z,5
2023-03-24T03:56:41.518Z,5
2023-03-24T03:57:50.013Z,4.8
2023-03-24T03:58:58.342Z,4.8
2023-03-24T04:00:06.668Z,4.8
2023-03-24T04:01:15.206Z,4.6
2023-03-24T04:02:23.575Z,4.6
2023-03-24T04:03:31.981Z,4.6
2023-03-24T04:04:40.441Z,5.6
2023-03-24T04:05:48.758Z,5.6
2023-03-24T04:06:57.121Z,5.6
2023-03-24T04:08:05.678Z,5.1
2023-03-24T04:09:14.053Z,5.1
2023-03-24T04:10:22.360Z,5.1
2023-03-24T04:11:30.893Z,5.2
2023-03-24T04:12:39.237Z,5.2
2023-03-24T04:13:47.594Z,5.2
2023-03-24T04:14:56.117Z,5.4
2023-03-24T04:16:04.475Z,5.4
2023-03-24T04:17:12.761Z,5.4
2023-03-24T04:18:21.298Z,14.7
2023-03-24T04:19:29.643Z,14.7
2023-03-24T04:20:37.972Z,14.7
2023-03-24T04:21:46.520Z,6.7
2023-03-24T04:22:54.853Z,6.7
2023-03-24T04:24:03.192Z,6.7
2023-03-24T04:25:11.752Z,6.9
2023-03-24T04:26:20.059Z,6.9
2023-03-24T04:27:28.392Z,6.9
2023-03-24T04:28:36.934Z,8.9
2023-03-24T04:29:45.282Z,8.9
2023-03-24T04:30:53.625Z,8.9
2023-03-24T04:32:02.188Z,5.6
2023-03-24T04:33:10.516Z,5.6
2023-03-24T04:34:18.855Z,5.6
2023-03-24T04:35:27.386Z,5.4
2023-03-24T04:36:35.721Z,5.4
2023-03-24T04:37:44.062Z,5.4
2023-03-24T04:38:52.610Z,6.5
2023-03-24T04:40:00.950Z,6.5
2023-03-24T04:41:09.293Z,6.5
2023-03-24T04:42:17.848Z,6.8
2023-03-24T04:43:26.136Z,6.8
2023-03-24T04:44:34.547Z,6.8
2023-03-24T04:45:43.578Z,4.4
2023-03-24T04:46:51.768Z,4.4
2023-03-24T04:48:00.149Z,4.4
2023-03-24T04:49:08.669Z,5.3
2023-03-24T04:50:17.003Z,5.3
2023-03-24T04:51:25.331Z,5.3
2023-03-24T04:52:33.871Z,4.8
2023-03-24T04:53:42.212Z,4.8
2023-03-24T04:54:50.533Z,4.8
2023-03-24T04:55:59.079Z,4.6
2023-03-24T04:57:07.535Z,4.6
2023-03-24T04:58:15.765Z,4.6
2023-03-24T04:59:24.350Z,4.6
2023-03-24T05:00:32.662Z,4.6
2023-03-24T05:01:41.006Z,4.6
2023-03-24T05:02:49.577Z,5.6
2023-03-24T05:03:57.920Z,5.6
2023-03-24T05:05:06.216Z,5.6
2023-03-24T05:06:14.754Z,4.6
2023-03-24T05:07:23.108Z,4.6
2023-03-24T05:08:31.431Z,4.6
2023-03-24T05:09:39.990Z,4.9
2023-03-24T05:10:48.336Z,4.9
2023-03-24T05:11:56.708Z,4.9
2023-03-24T05:13:05.339Z,5.8
2023-03-24T05:14:13.605Z,5.8
2023-03-24T05:15:21.934Z,5.8
2023-03-24T05:16:30.636Z,5.3
2023-03-24T05:17:38.868Z,5.3
2023-03-24T05:18:47.206Z,5.3
2023-03-24T05:19:55.736Z,4.7
2023-03-24T05:21:04.067Z,4.7
2023-03-24T05:22:12.402Z,4.7
2023-03-24T05:23:20.975Z,7.3
2023-03-24T05:24:29.322Z,7.3
2023-03-24T05:25:37.642Z,7.3
2023-03-24T05:26:46.194Z,5.6
2023-03-24T05:27:54.528Z,5.6
2023-03-24T05:29:02.909Z,5.6
2023-03-24T05:30:11.426Z,8
2023-03-24T05:31:19.780Z,8
2023-03-24T05:32:28.132Z,8
2023-03-24T05:33:36.653Z,9.1
2023-03-24T05:34:45.007Z,9.1
2023-03-24T05:35:53.333Z,9.1
2023-03-24T05:37:01.859Z,5.9
2023-03-24T05:38:10.177Z,5.9
2023-03-24T05:39:18.517Z,5.9
2023-03-24T05:40:27.058Z,5.1
2023-03-24T05:41:35.418Z,5.1
2023-03-24T05:42:43.769Z,5.1
2023-03-24T05:43:52.315Z,4.4
2023-03-24T05:45:00.677Z,4.4
2023-03-24T05:46:09.058Z,4.4
2023-03-24T05:47:17.523Z,5.8
2023-03-24T05:48:25.847Z,5.8
2023-03-24T05:49:34.178Z,5.8
2023-03-24T05:50:42.721Z,5.1
2023-03-24T05:51:51.072Z,5.1
2023-03-24T05:52:59.404Z,5.1
2023-03-24T05:54:07.990Z,4.7
2023-03-24T05:55:16.355Z,4.7
2023-03-24T05:56:24.673Z,4.7
2023-03-24T05:57:33.231Z,4.8
2023-03-24T05:58:41.588Z,4.8
2023-03-24T05:59:52.119Z,4.8
2023-03-24T06:01:00.686Z,5.8
2023-03-24T06:02:09.038Z,5.8
2023-03-24T06:03:17.637Z,5.8
2023-03-24T06:04:25.939Z,4.3
2023-03-24T06:05:34.272Z,4.3
2023-03-24T06:06:42.652Z,4.3
2023-03-24T06:07:51.189Z,4.7
2023-03-24T06:08:59.515Z,4.7
2023-03-24T06:10:07.876Z,4.7
2023-03-24T06:11:16.435Z,5
2023-03-24T06:12:24.762Z,5
2023-03-24T06:13:33.091Z,5
2023-03-24T06:14:41.651Z,6.7
2023-03-24T06:15:50.112Z,6.7
2023-03-24T06:16:58.408Z,6.7
2023-03-24T06:18:06.921Z,5
2023-03-24T06:19:15.252Z,5
2023-03-24T06:20:23.575Z,5
2023-03-24T06:21:34.686Z,5.8
2023-03-24T06:22:40.415Z,5.8
2023-03-24T06:23:48.741Z,5.8
2023-03-24T06:24:57.264Z,6.4
2023-03-24T06:26:05.583Z,6.4
2023-03-24T06:27:13.879Z,6.4
2023-03-24T06:28:22.410Z,5.1
2023-03-24T06:29:30.730Z,5.1
2023-03-24T06:30:39.025Z,5.1
2023-03-24T06:31:47.547Z,5.5
2023-03-24T06:32:55.913Z,5.5
2023-03-24T06:34:04.189Z,5.5
2023-03-24T06:35:12.708Z,4.7
2023-03-24T06:36:21.048Z,4.7
2023-03-24T06:37:29.336Z,4.7
2023-03-24T06:38:37.857Z,4.9
2023-03-24T06:39:46.200Z,4.9
2023-03-24T06:40:54.505Z,4.9
2023-03-24T06:42:03.068Z,101.19999
2023-03-24T06:43:11.358Z,101.19999
2023-03-24T06:44:19.704Z,101.19999
2023-03-24T06:45:30.141Z,118.69999
2023-03-24T06:46:36.578Z,118.69999
2023-03-24T06:47:44.894Z,118.69999
2023-03-24T06:48:53.439Z,28.299999
2023-03-24T06:50:01.764Z,28.299999
2023-03-24T06:51:10.051Z,28.299999
2023-03-24T06:52:18.585Z,41.599998
2023-03-24T06:53:26.897Z,41.599998
2023-03-24T06:54:35.223Z,41.599998
2023-03-24T06:55:43.822Z,21.5
2023-03-24T06:56:52.121Z,21.5
2023-03-24T06:58:00.428Z,21.5
2023-03-24T06:59:08.970Z,35.200001
2023-03-24T07:00:17.282Z,35.200001
2023-03-24T07:01:25.623Z,35.200001
2023-03-24T07:02:34.171Z,31.9
2023-03-24T07:03:42.527Z,31.9
2023-03-24T07:04:50.803Z,31.9
2023-03-24T07:05:59.343Z,32.599998
2023-03-24T07:08:30.003Z,32.599998
2023-03-24T07:09:24.536Z,9.3
2023-03-24T07:10:32.841Z,9.3
2023-03-24T07:11:41.187Z,9.3
2023-03-24T07:12:49.705Z,11
2023-03-24T07:13:58.029Z,11
2023-03-24T07:15:06.350Z,11
2023-03-24T07:16:14.890Z,7.6
2023-03-24T07:17:24.264Z,7.6
2023-03-24T07:18:31.509Z,7.6
2023-03-24T07:19:40.038Z,5.2
2023-03-24T07:20:48.384Z,5.2
2023-03-24T07:21:56.675Z,5.2
2023-03-24T07:23:05.208Z,5.3
2023-03-24T07:24:13.526Z,5.3
2023-03-24T07:25:21.825Z,5.3
2023-03-24T07:26:30.348Z,8.1
2023-03-24T07:27:39.469Z,8.1
2023-03-24T07:28:46.978Z,8.1
2023-03-24T07:29:55.490Z,7
2023-03-24T07:31:03.830Z,7
2023-03-24T07:32:12.112Z,7
2023-03-24T07:33:20.645Z,7.8
2023-03-24T07:34:28.959Z,7.8
2023-03-24T07:35:37.289Z,7.8
2023-03-24T07:36:45.820Z,6.5
2023-03-24T07:37:54.119Z,6.5
2023-03-24T07:39:02.421Z,6.5
2023-03-24T07:40:10.956Z,6.4
2023-03-24T07:41:19.270Z,6.4
2023-03-24T07:42:27.570Z,6.4
2023-03-24T07:43:36.109Z,9.2
2023-03-24T07:44:44.446Z,9.2
2023-03-24T07:45:52.762Z,9.2
2023-03-24T07:47:01.251Z,7
2023-03-24T07:48:09.728Z,7
2023-03-24T07:49:19.630Z,7
2023-03-24T07:50:26.418Z,21.4
2023-03-24T07:51:37.227Z,21.4
2023-03-24T07:52:43.033Z,21.4
2023-03-24T07:53:51.530Z,12.9
2023-03-24T07:54:59.850Z,12.9
2023-03-24T07:56:08.177Z,12.9
2023-03-24T07:57:16.937Z,22
2023-03-24T07:58:25.007Z,22
2023-03-24T07:59:33.370Z,22
2023-03-24T08:00:41.846Z,16.9
2023-03-24T08:01:52.720Z,16.9
2023-03-24T08:02:58.562Z,16.9
2023-03-24T08:04:07.114Z,7.6
2023-03-24T08:05:15.340Z,7.6
2023-03-24T08:06:23.665Z,7.6
2023-03-24T08:07:32.208Z,7.7
2023-03-24T08:08:40.541Z,7.7
2023-03-24T08:09:48.827Z,7.7
2023-03-24T08:10:57.359Z,4.3
2023-03-24T08:12:13.740Z,4.3
2023-03-24T08:13:13.966Z,4.3
2023-03-24T08:14:23.778Z,4.3
2023-03-24T08:15:30.803Z,4.3
2023-03-24T08:16:39.194Z,4.3
2023-03-24T08:17:47.708Z,3.9
2023-03-24T08:18:56.164Z,3.9
2023-03-24T08:20:05.967Z,3.9
2023-03-24T08:21:12.804Z,3.3
2023-03-24T08:22:21.134Z,3.3
2023-03-24T08:23:29.474Z,3.3
2023-03-24T08:24:38.089Z,3.8
2023-03-24T08:25:46.425Z,3.8
2023-03-24T08:26:54.619Z,3.8
2023-03-24T08:28:03.148Z,4.3
2023-03-24T08:29:11.481Z,4.3
2023-03-24T08:30:19.781Z,4.3
2023-03-24T08:31:28.313Z,4.1
2023-03-24T08:32:36.639Z,4.1
2023-03-24T08:33:44.922Z,4.1
2023-03-24T08:34:53.458Z,7
2023-03-24T08:36:01.783Z,7
2023-03-24T08:37:10.102Z,7
2023-03-24T08:38:19.177Z,4
2023-03-24T08:39:26.952Z,4
2023-03-24T08:40:35.323Z,4
2023-03-24T08:41:43.828Z,2.7
2023-03-24T08:42:52.134Z,2.7
2023-03-24T08:44:00.449Z,2.7
2023-03-24T08:45:08.979Z,4.1
2023-03-24T08:46:17.329Z,4.1
2023-03-24T08:47:25.654Z,4.1
2023-03-24T08:48:34.144Z,3.2
2023-03-24T08:49:42.483Z,3.2
2023-03-24T08:50:50.810Z,3.2
2023-03-24T08:51:59.345Z,3.2
2023-03-24T08:53:07.670Z,3.2
2023-03-24T08:54:15.984Z,3.2
2023-03-24T08:55:24.514Z,3.6
2023-03-24T08:56:32.927Z,3.6
2023-03-24T08:57:41.189Z,3.6
2023-03-24T08:58:49.699Z,3.2
2023-03-24T08:59:58.020Z,3.2
2023-03-24T09:01:06.345Z,3.2
2023-03-24T09:02:14.882Z,2.9
2023-03-24T09:03:23.229Z,2.9
2023-03-24T09:04:31.583Z,2.9
2023-03-24T09:05:44.666Z,2.5
2023-03-24T09:06:48.411Z,2.5
2023-03-24T09:07:56.736Z,2.5
2023-03-24T09:09:05.291Z,2.6
2023-03-24T09:10:13.610Z,2.6
2023-03-24T09:11:21.948Z,2.6
2023-03-24T09:12:30.564Z,5.4
2023-03-24T09:13:38.828Z,5.4
2023-03-24T09:14:47.172Z,5.4
2023-03-24T09:15:55.737Z,5.3
2023-03-24T09:17:04.050Z,5.3
2023-03-24T09:18:12.350Z,5.3
2023-03-24T09:19:20.890Z,3.8
2023-03-24T09:20:29.216Z,3.8
2023-03-24T09:21:37.520Z,3.8
2023-03-24T09:22:46.076Z,4.5
2023-03-24T09:23:54.380Z,4.5
2023-03-24T09:25:02.698Z,4.5
2023-03-24T09:26:11.215Z,3.2
2023-03-24T09:27:19.524Z,3.2
2023-03-24T09:28:27.865Z,3.2
2023-03-24T09:29:36.380Z,3.3
2023-03-24T09:30:44.722Z,3.3
2023-03-24T09:31:52.994Z,3.3
2023-03-24T09:33:01.556Z,3.7
2023-03-24T09:34:09.892Z,3.7
2023-03-24T09:35:18.219Z,3.7
2023-03-24T09:36:26.773Z,2.9
2023-03-24T09:37:35.081Z,2.9
2023-03-24T09:38:43.408Z,2.9
2023-03-24T09:39:51.967Z,3.2
2023-03-24T09:41:00.302Z,3.2
2023-03-24T09:42:08.612Z,3.2
2023-03-24T09:43:17.142Z,2.9
2023-03-24T09:44:25.635Z,2.9
2023-03-24T09:45:33.836Z,2.9
2023-03-24T09:46:42.431Z,4.1
2023-03-24T09:47:50.753Z,4.1
2023-03-24T09:48:59.032Z,4.1
2023-03-24T09:50:07.544Z,2.8
2023-03-24T09:51:15.860Z,2.8
2023-03-24T09:52:24.177Z,2.8
2023-03-24T09:53:32.698Z,2.8
2023-03-24T09:54:41.006Z,2.8
2023-03-24T09:55:49.496Z,2.8
2023-03-24T09:56:57.865Z,2.6
2023-03-24T09:58:06.153Z,2.6
2023-03-24T09:59:14.474Z,2.6
2023-03-24T10:00:23.067Z,2.6
2023-03-24T10:01:31.347Z,2.6
2023-03-24T10:02:39.649Z,2.6
2023-03-24T10:03:48.221Z,3
2023-03-24T10:04:56.475Z,3
2023-03-24T10:06:04.785Z,3
2023-03-24T10:07:13.316Z,3.2
2023-03-24T10:08:21.630Z,3.2
2023-03-24T10:09:29.963Z,3.2
2023-03-24T10:10:38.484Z,2.4
2023-03-24T10:11:46.810Z,2.4
2023-03-24T10:12:55.122Z,2.4
2023-03-24T10:14:04.406Z,2.6
2023-03-24T10:15:11.991Z,2.6
2023-03-24T10:16:20.365Z,2.6
2023-03-24T10:17:28.853Z,2.5
2023-03-24T10:18:37.161Z,2.5
2023-03-24T10:19:45.572Z,2.5
2023-03-24T10:20:54.004Z,2.4
2023-03-24T10:22:02.334Z,2.4
2023-03-24T10:23:10.654Z,2.4
2023-03-24T10:24:19.192Z,3.2
2023-03-24T10:25:27.513Z,3.2
2023-03-24T10:26:35.838Z,3.2
2023-03-24T10:27:44.367Z,2.1
2023-03-24T10:28:52.695Z,2.1
2023-03-24T10:30:01.057Z,2.1
2023-03-24T10:31:09.573Z,2.8
2023-03-24T10:32:17.910Z,2.8
2023-03-24T10:33:26.208Z,2.8
2023-03-24T10:34:34.762Z,2.3
2023-03-24T10:35:43.103Z,2.3
2023-03-24T10:36:51.411Z,2.3
2023-03-24T10:37:59.939Z,2.2
2023-03-24T10:39:18.477Z,2.2
2023-03-24T10:40:16.734Z,2.2
2023-03-24T10:41:25.187Z,2.9
2023-03-24T10:42:33.512Z,2.9
2023-03-24T10:43:41.879Z,2.9
2023-03-24T10:44:50.450Z,2.8
2023-03-24T10:45:58.835Z,2.8
2023-03-24T10:47:07.171Z,2.8
2023-03-24T10:48:15.750Z,4.1
2023-03-24T10:49:24.069Z,4.1
2023-03-24T10:50:32.393Z,4.1
2023-03-24T10:51:40.968Z,3.2
2023-03-24T10:52:49.301Z,3.2
2023-03-24T10:53:57.641Z,3.2
2023-03-24T10:55:06.218Z,3.2
2023-03-24T10:56:14.549Z,3.2
2023-03-24T10:57:22.874Z,3.2
2023-03-24T10:58:31.435Z,4.1
2023-03-24T10:59:39.746Z,4.1
2023-03-24T11:00:48.147Z,4.1
2023-03-24T11:01:56.708Z,4.2
2023-03-24T11:03:05.080Z,4.2
2023-03-24T11:04:13.354Z,4.2
2023-03-24T11:05:21.885Z,4
2023-03-24T11:06:30.203Z,4
2023-03-24T11:07:38.549Z,4
2023-03-24T11:08:47.080Z,3.7
2023-03-24T11:09:55.418Z,3.7
2023-03-24T11:11:03.750Z,3.7
2023-03-24T11:12:12.281Z,3.4
2023-03-24T11:13:20.633Z,3.4
2023-03-24T11:14:29.057Z,3.4
2023-03-24T11:15:37.627Z,3
2023-03-24T11:16:46.107Z,3
2023-03-24T11:17:54.332Z,3
2023-03-24T11:19:02.868Z,2.8
2023-03-24T11:20:11.204Z,2.8
2023-03-24T11:21:19.525Z,2.8
2023-03-24T11:22:28.119Z,3.5
2023-03-24T11:23:36.437Z,3.5
2023-03-24T11:24:44.830Z,3.5
2023-03-24T11:25:53.390Z,3.2
2023-03-24T11:27:01.721Z,3.2
2023-03-24T11:28:10.056Z,3.2
2023-03-24T11:29:18.608Z,3.4
2023-03-24T11:30:26.938Z,3.4
2023-03-24T11:31:35.296Z,3.4
2023-03-24T11:32:43.848Z,3.5
2023-03-24T11:33:52.209Z,3.5
2023-03-24T11:35:00.532Z,3.5
2023-03-24T11:36:09.310Z,4
2023-03-24T11:37:17.425Z,4
2023-03-24T11:38:25.756Z,4
2023-03-24T11:39:34.337Z,2.6
2023-03-24T11:40:42.689Z,2.6
2023-03-24T11:41:51.013Z,2.6
2023-03-24T11:42:59.572Z,2.2
2023-03-24T11:44:07.911Z,2.2
2023-03-24T11:45:16.250Z,2.2
2023-03-24T11:46:24.840Z,2.5
2023-03-24T11:47:33.237Z,2.5
2023-03-24T11:48:41.972Z,2.5
2023-03-24T11:49:50.056Z,2.3
2023-03-24T11:50:58.391Z,2.3
2023-03-24T11:52:06.784Z,2.3
2023-03-24T11:53:15.293Z,2.7
2023-03-24T11:54:23.646Z,2.7
2023-03-24T11:55:32.017Z,2.7
2023-03-24T11:56:40.585Z,2.6
2023-03-24T11:57:48.902Z,2.6
2023-03-24T11:58:57.213Z,2.6
2023-03-24T12:00:05.754Z,2.5
2023-03-24T12:01:14.073Z,2.5
2023-03-24T12:02:22.439Z,2.5
2023-03-24T12:03:31.072Z,3
2023-03-24T12:04:39.367Z,3
2023-03-24T12:05:50.353Z,3
2023-03-24T12:06:56.236Z,3.2
2023-03-24T12:08:04.601Z,3.2
2023-03-24T12:09:12.936Z,3.2
2023-03-24T12:10:21.490Z,2.3
2023-03-24T12:11:29.817Z,2.3
2023-03-24T12:12:38.177Z,2.3
2023-03-24T12:13:46.694Z,2.9
2023-03-24T12:14:55.053Z,2.9
2023-03-24T12:16:03.425Z,2.9
2023-03-24T12:17:11.941Z,2.7
2023-03-24T12:18:20.274Z,2.7
2023-03-24T12:19:28.613Z,2.7
2023-03-24T12:20:37.163Z,2.9
2023-03-24T12:21:45.529Z,2.9
2023-03-24T12:22:53.858Z,2.9
2023-03-24T12:24:02.458Z,3
2023-03-24T12:25:10.736Z,3
2023-03-24T12:26:19.071Z,3
2023-03-24T12:27:27.616Z,3.2
2023-03-24T12:28:35.986Z,3.2
2023-03-24T12:29:44.375Z,3.2
2023-03-24T12:30:52.900Z,2.8
2023-03-24T12:32:01.237Z,2.8
2023-03-24T12:33:09.573Z,2.8
2023-03-24T12:34:18.148Z,2.8
2023-03-24T12:35:26.517Z,2.8
2023-03-24T12:36:34.792Z,2.8
2023-03-24T12:37:43.350Z,2.6
2023-03-24T12:38:51.693Z,2.6
2023-03-24T12:40:00.045Z,2.6
2023-03-24T12:41:08.575Z,3.7
2023-03-24T12:42:16.904Z,3.7
2023-03-24T12:43:25.216Z,3.7
2023-03-24T12:44:33.778Z,3.5
2023-03-24T12:45:42.181Z,3.5
2023-03-24T12:46:52.597Z,3.5
2023-03-24T12:47:59.106Z,2.9
2023-03-24T12:49:07.455Z,2.9
2023-03-24T12:50:15.814Z,2.9
2023-03-24T12:51:24.315Z,3.4
2023-03-24T12:52:32.672Z,3.4
2023-03-24T12:53:41.025Z,3.4
2023-03-24T12:54:49.721Z,2
2023-03-24T12:55:58.038Z,2
2023-03-24T12:57:06.454Z,2
2023-03-24T12:58:14.934Z,1
2023-03-24T12:59:23.277Z,1
2023-03-24T13:00:31.734Z,1
2023-03-24T13:01:40.315Z,1.5
2023-03-24T13:02:48.737Z,1.5
2023-03-24T13:03:57.037Z,1.5
2023-03-24T13:05:05.630Z,1.6
2023-03-24T13:06:17.072Z,1.6
2023-03-24T13:07:22.278Z,1.6
2023-03-24T13:08:30.832Z,0.7
2023-03-24T13:09:39.205Z,0.7
2023-03-24T13:10:47.554Z,0.7
2023-03-24T13:11:56.160Z,1.5
2023-03-24T13:13:04.457Z,1.5
2023-03-24T13:14:14.100Z,1.5
2023-03-24T13:15:22.740Z,0.7
2023-03-24T13:16:31.120Z,0.7
2023-03-24T13:17:39.393Z,0.7
2023-03-24T13:18:47.920Z,1.1
2023-03-24T13:19:56.306Z,1.1
2023-03-24T13:21:04.654Z,1.1
2023-03-24T13:22:13.195Z,0.8
2023-03-24T13:23:21.524Z,0.8
2023-03-24T13:24:29.974Z,0.8
2023-03-24T13:25:38.524Z,2.3
2023-03-24T13:26:46.873Z,2.3
2023-03-24T13:27:55.255Z,2.3
2023-03-24T13:29:03.931Z,1.2
2023-03-24T13:30:12.153Z,1.2
2023-03-24T13:31:20.498Z,1.2
2023-03-24T13:32:29.011Z,1.3
2023-03-24T13:33:37.391Z,1.3
2023-03-24T13:34:45.711Z,1.3
2023-03-24T13:35:54.374Z,0.8
2023-03-24T13:37:02.556Z,0.8
2023-03-24T13:38:10.877Z,0.8
2023-03-24T13:39:19.453Z,2.1
2023-03-24T13:40:27.801Z,2.1
2023-03-24T13:41:36.147Z,2.1
2023-03-24T13:42:44.740Z,0.7
2023-03-24T13:43:53.110Z,0.7
2023-03-24T13:45:01.474Z,0.7
2023-03-24T13:46:10.067Z,1.1
2023-03-24T13:47:18.361Z,1.1
2023-03-24T13:48:26.741Z,1.1
2023-03-24T13:49:35.317Z,0.9
2023-03-24T13:50:43.664Z,0.9
2023-03-24T13:51:52.023Z,0.9
2023-03-24T13:53:00.574Z,0.8
2023-03-24T13:54:08.962Z,0.8
2023-03-24T13:55:17.284Z,0.8
2023-03-24T13:56:25.886Z,1.4
2023-03-24T13:57:34.155Z,1.4
2023-03-24T13:58:42.507Z,1.4
2023-03-24T13:59:51.118Z,6.2
2023-03-24T14:00:59.431Z,6.2
2023-03-24T14:02:07.761Z,6.2
2023-03-24T14:03:16.367Z,8.8
2023-03-24T14:04:24.721Z,8.8
2023-03-24T14:05:33.089Z,8.8
2023-03-24T14:06:41.641Z,4
2023-03-24T14:07:50.022Z,4
2023-03-24T14:08:58.370Z,4
2023-03-24T14:10:06.925Z,7.1
2023-03-24T14:11:15.253Z,7.1
2023-03-24T14:12:23.575Z,7.1
2023-03-24T14:13:32.152Z,4.8
2023-03-24T14:14:40.471Z,4.8
2023-03-24T14:15:49.089Z,4.8
2023-03-24T14:16:57.401Z,4.2
2023-03-24T14:18:07.371Z,4.2
2023-03-24T14:19:14.099Z,4.2
2023-03-24T14:20:22.644Z,8.5
2023-03-24T14:21:30.973Z,8.5
2023-03-24T14:22:39.296Z,8.5
2023-03-24T14:23:47.874Z,4.1
2023-03-24T14:24:56.194Z,4.1
2023-03-24T14:26:04.541Z,4.1
2023-03-24T14:27:13.100Z,1.5
2023-03-24T14:28:21.449Z,1.5
2023-03-24T14:29:29.794Z,1.5
2023-03-24T14:30:38.340Z,1.6
2023-03-24T14:31:46.698Z,1.6
2023-03-24T14:32:55.040Z,1.6
2023-03-24T14:34:03.611Z,1.4
2023-03-24T14:35:11.949Z,1.4
2023-03-24T14:36:20.307Z,1.4
2023-03-24T14:37:28.882Z,2.8
2023-03-24T14:38:37.216Z,2.8
2023-03-24T14:39:45.559Z,2.8
2023-03-24T14:40:54.128Z,2.4
2023-03-24T14:42:02.460Z,2.4
2023-03-24T14:43:10.799Z,2.4
2023-03-24T14:44:19.397Z,1.5
2023-03-24T14:45:27.757Z,1.5
2023-03-24T14:46:36.119Z,1.5
2023-03-24T14:47:44.640Z,1.7
2023-03-24T14:48:52.937Z,1.7
2023-03-24T14:50:01.280Z,1.7
2023-03-24T14:51:09.833Z,2.5
2023-03-24T14:52:18.161Z,2.5
2023-03-24T14:53:26.470Z,2.5
2023-03-24T14:54:35.037Z,2.5
2023-03-24T14:55:43.370Z,2.5
2023-03-24T14:56:51.709Z,2.5
2023-03-24T14:58:00.255Z,2.8
2023-03-24T14:59:08.654Z,2.8
2023-03-24T15:00:17.013Z,2.8
2023-03-24T15:01:25.561Z,1.5
2023-03-24T15:02:33.907Z,1.5
2023-03-24T15:03:42.257Z,1.5
2023-03-24T15:04:50.794Z,2.9
2023-03-24T15:05:59.115Z,2.9
2023-03-24T15:39:47.254Z,0
2023-03-24T15:40:55.550Z,0
2023-03-24T15:42:03.896Z,0
2023-03-24T15:43:12.434Z,1.5
2023-03-24T15:44:20.766Z,1.5
2023-03-24T15:45:29.176Z,1.5
2023-03-24T15:46:37.737Z,1.7
2023-03-24T15:47:46.017Z,1.7
2023-03-24T15:48:54.385Z,1.7
2023-03-24T15:50:03.805Z,2.5
2023-03-24T15:51:11.263Z,2.5
2023-03-24T15:52:19.648Z,2.5
2023-03-24T15:53:28.163Z,2.4
2023-03-24T15:54:36.507Z,2.4
2023-03-24T15:55:44.880Z,2.4
2023-03-24T15:56:53.417Z,4.5
2023-03-24T15:58:01.731Z,4.5
2023-03-24T15:59:10.075Z,4.5
2023-03-24T16:00:18.622Z,8.1
2023-03-24T16:01:27.026Z,8.1
2023-03-24T16:02:35.314Z,8.1
2023-03-24T16:03:43.903Z,3.2
2023-03-24T16:04:57.291Z,3.2
2023-03-24T16:06:00.519Z,3.2
2023-03-24T16:07:09.041Z,4.1
2023-03-24T16:08:17.396Z,4.1
2023-03-24T16:09:25.762Z,4.1
2023-03-24T16:10:34.302Z,5.3
2023-03-24T16:11:42.682Z,5.3
2023-03-24T16:12:51.000Z,5.3
2023-03-24T16:13:59.566Z,3.5
2023-03-24T16:15:07.899Z,3.5
2023-03-24T16:16:16.263Z,3.5